Time;durP1;ratioP1;P1;durP2;ratioP2;P2;SDS_P1;SDS_P2;PMS_P1;PMS_P2;Temp;Humidity;BMP_temperature;BMP_pressure;BME280_temperature;BME280_humidity;BME280_pressure;Samples;Min_cycle;Max_cycle;Signal;HPM_P1;HPM_P2
2022/05/20 00:01:39;;;;;;;5.30;3.00;;;;;;;22.39;44.90;101784.52;104883;1303;61468;-82
2022/05/20 00:04:04;;;;;;;5.80;2.70;;;;;;;22.39;44.79;101780.02;104941;1303;72835;-83
2022/05/20 00:06:30;;;;;;;5.40;2.80;;;;;;;22.40;44.94;101777.50;104926;1302;61365;-83
2022/05/20 00:08:56;;;;;;;4.10;2.50;;;;;;;22.40;44.82;101775.71;104824;1303;61300;-84
2022/05/20 00:11:34;;;;;;;5.60;2.60;;;;;;;22.40;44.86;101774.63;104955;1302;61265;-83
2022/05/20 00:14:08;;;;;;;6.10;2.80;;;;;;;22.40;44.94;101773.70;104913;1303;73815;-82
2022/05/20 00:16:37;;;;;;;6.40;2.70;;;;;;;22.40;44.79;101770.33;105226;1301;74727;-83
2022/05/20 00:19:16;;;;;;;5.30;2.70;;;;;;;22.40;44.94;101777.14;104952;1303;61367;-83
2022/05/20 00:22:05;;;;;;;5.20;2.60;;;;;;;22.39;45.00;101774.31;105141;1301;61137;-84
2022/05/20 00:25:45;;;;;;;4.40;2.60;;;;;;;22.40;44.83;101772.85;104895;1303;72991;-82
2022/05/20 00:27:31;;;;;;;5.00;2.70;;;;;;;22.39;44.89;101766.80;104918;1302;74978;-84
2022/05/20 00:29:57;;;;;;;4.80;2.40;;;;;;;22.39;44.94;101769.67;104968;1302;62352;-83
2022/05/20 00:32:29;;;;;;;5.10;2.50;;;;;;;22.39;44.85;101771.45;104949;1303;61193;-85
2022/05/20 00:35:10;;;;;;;4.80;2.60;;;;;;;22.39;44.90;101776.30;104907;1303;72709;-83
2022/05/20 00:37:44;;;;;;;5.10;2.90;;;;;;;22.39;44.85;101775.56;104954;1303;74890;-82
2022/05/20 00:40:25;;;;;;;4.50;2.70;;;;;;;22.39;45.04;101778.64;104922;1303;60337;-81
2022/05/20 00:43:12;;;;;;;3.70;2.10;;;;;;;22.39;45.04;101782.04;104969;1302;62324;-83
2022/05/20 00:45:45;;;;;;;4.90;2.50;;;;;;;22.38;44.97;101778.66;105118;1303;74041;-83
2022/05/20 00:48:23;;;;;;;4.40;2.60;;;;;;;22.39;45.02;101782.05;104929;1303;75668;-86
2022/05/20 00:50:54;;;;;;;4.60;2.60;;;;;;;22.39;45.03;101784.04;104915;1303;61265;-84
2022/05/20 00:53:27;;;;;;;5.30;2.50;;;;;;;22.39;45.03;101781.70;105158;1302;61170;-83
2022/05/20 00:55:56;;;;;;;;;;;;;;;22.39;44.95;101779.36;104935;1303;74337;-86
2022/05/20 00:58:22;;;;;;;5.60;2.80;;;;;;;22.36;44.98;101773.08;105198;1302;74582;-85
2022/05/20 01:00:55;;;;;;;5.00;2.60;;;;;;;22.37;45.11;101771.04;104937;1302;59335;-83
2022/05/20 01:03:27;;;;;;;4.50;2.70;;;;;;;22.37;45.01;101769.41;104985;1302;61323;-84
2022/05/20 01:05:58;;;;;;;4.50;2.60;;;;;;;22.37;45.02;101771.21;104912;1303;72444;-83
2022/05/20 01:08:31;;;;;;;5.00;2.70;;;;;;;22.37;45.22;101773.37;104840;1303;75766;-85
2022/05/20 01:11:06;;;;;;;5.00;2.60;;;;;;;22.37;45.06;101774.48;104907;1301;61533;-82
2022/05/20 01:13:35;;;;;;;4.80;2.60;;;;;;;22.37;45.06;101775.72;105149;1302;61390;-81
2022/05/20 01:16:13;;;;;;;4.20;2.70;;;;;;;22.37;44.94;101774.64;104933;1302;73758;-83
2022/05/20 01:18:47;;;;;;;5.20;2.60;;;;;;;22.37;45.08;101778.58;104841;1302;74871;-83
2022/05/20 01:21:28;;;;;;;4.80;2.80;;;;;;;22.37;45.07;101776.60;104938;1303;61597;-84
2022/05/20 01:24:02;;;;;;;5.00;2.60;;;;;;;22.37;45.05;101776.09;104927;1303;61225;-82
2022/05/20 01:26:31;;;;;;;5.10;2.60;;;;;;;22.36;45.16;101776.48;104907;1303;74262;-84
2022/05/20 01:29:06;;;;;;;4.90;2.60;;;;;;;22.36;45.09;101774.50;104855;1303;75054;-82
2022/05/20 01:31:38;;;;;;;5.90;2.70;;;;;;;22.36;45.17;101773.23;104828;1303;61396;-84
2022/05/20 01:34:07;;;;;;;4.30;2.60;;;;;;;22.36;45.20;101768.76;104974;1302;61256;-83
2022/05/20 01:36:38;;;;;;;4.50;2.90;;;;;;;22.36;45.20;101767.67;104839;1303;72572;-84
2022/05/20 01:39:09;;;;;;;4.00;2.40;;;;;;;22.36;45.10;101766.99;104680;1303;74853;-84
2022/05/20 01:41:54;;;;;;;5.40;2.70;;;;;;;22.36;45.15;101765.73;105198;1301;61154;-86
2022/05/20 01:44:26;;;;;;;5.30;2.60;;;;;;;22.35;45.02;101765.58;104977;1303;61679;-83
2022/05/20 01:47:15;;;;;;;4.30;2.40;;;;;;;22.36;45.11;101767.17;104938;1303;71800;-84
2022/05/20 01:49:43;;;;;;;5.80;2.50;;;;;;;22.35;45.15;101761.44;104709;1302;73390;-83
2022/05/20 01:52:50;;;;;;;5.70;3.10;;;;;;;22.35;45.18;101762.34;105004;1303;61683;-85
2022/05/20 01:55:21;;;;;;;4.70;2.80;;;;;;;22.35;45.15;101757.02;104510;1308;61510;-84
2022/05/20 01:58:27;;;;;;;6.00;2.60;;;;;;;22.35;45.07;101759.16;104384;1308;72883;-84
2022/05/20 02:01:01;;;;;;;4.70;2.60;;;;;;;22.35;45.13;101763.85;104418;1308;75889;-83
2022/05/20 02:03:31;;;;;;;4.20;2.70;;;;;;;22.34;45.20;101767.23;104379;1309;61214;-82
2022/05/20 02:05:56;;;;;;;;;;;;;;;22.34;45.23;101764.56;104473;1309;61159;-84
2022/05/20 02:08:49;;;;;;;4.40;2.70;;;;;;;22.32;45.14;101765.94;104499;1308;73665;-83
2022/05/20 02:11:32;;;;;;;4.90;2.70;;;;;;;22.33;45.10;101768.58;104477;1308;74042;-83
2022/05/20 02:14:03;;;;;;;4.10;2.60;;;;;;;22.32;45.08;101766.45;104347;1308;61117;-83
2022/05/20 02:16:34;;;;;;;4.60;2.40;;;;;;;22.33;45.13;101765.18;104438;1309;61883;-85
2022/05/20 02:19:34;;;;;;;5.50;2.80;;;;;;;22.33;45.07;101766.96;104410;1308;73876;-85
2022/05/20 02:22:02;;;;;;;4.80;2.80;;;;;;;22.32;45.15;101766.28;104106;1316;75381;-83
2022/05/20 02:24:31;;;;;;;4.60;2.60;;;;;;;22.33;45.05;101771.27;103646;1316;61290;-81
2022/05/20 02:27:13;;;;;;;5.10;3.00;;;;;;;22.33;45.06;101771.80;103958;1316;61201;-83
2022/05/20 02:29:45;;;;;;;5.90;2.90;;;;;;;22.33;45.21;101770.20;103554;1316;72674;-80
2022/05/20 02:32:42;;;;;;;4.40;2.50;;;;;;;22.33;45.07;101771.46;103963;1309;75857;-82
2022/05/20 02:35:11;;;;;;;5.50;2.70;;;;;;;22.32;45.16;101774.34;103941;1317;61369;-84
2022/05/20 02:37:48;;;;;;;6.10;2.80;;;;;;;22.33;45.07;101770.71;103606;1317;61687;-82
2022/05/20 02:40:20;;;;;;;4.30;2.60;;;;;;;22.33;45.18;101778.25;103553;1317;72841;-84
2022/05/20 02:42:49;;;;;;;4.10;2.60;;;;;;;22.33;45.21;101782.73;103629;1317;75960;-83
2022/05/20 02:45:18;;;;;;;4.50;2.80;;;;;;;22.33;44.89;101780.42;103453;1317;62000;-82
2022/05/20 02:47:52;;;;;;;4.60;2.80;;;;;;;22.33;45.15;101785.63;103581;1317;61192;-85
2022/05/20 02:50:22;;;;;;;5.20;3.00;;;;;;;22.33;45.00;101791.71;103595;1317;73846;-86
2022/05/20 02:52:48;;;;;;;5.90;2.80;;;;;;;22.32;45.16;101792.98;103614;1317;73813;-82
2022/05/20 02:55:27;;;;;;;5.70;2.90;;;;;;;22.33;45.18;101792.97;103576;1317;61864;-83
2022/05/20 02:57:56;;;;;;;4.40;2.50;;;;;;;22.33;45.24;101793.70;103747;1311;61305;-83
2022/05/20 03:04:09;;;;;;;4.60;2.50;;;;;;;22.32;45.11;101790.84;104318;1311;74846;-83
2022/05/20 03:05:56;;;;;;;5.10;2.80;;;;;;;22.32;45.19;101788.38;104338;1311;61150;-83
2022/05/20 03:08:28;;;;;;;4.60;2.60;;;;;;;22.32;45.04;101787.11;104244;1313;61465;-82
2022/05/20 03:11:08;;;;;;;5.20;2.70;;;;;;;22.32;45.22;101786.94;104276;1311;72725;-85
2022/05/20 03:13:36;;;;;;;4.40;2.60;;;;;;;22.32;45.01;101782.08;104769;1304;75056;-84
2022/05/20 03:16:02;;;;;;;4.80;2.90;;;;;;;22.32;45.07;101786.05;104847;1303;61433;-83
2022/05/20 03:18:28;;;;;;;6.80;2.90;;;;;;;22.32;44.96;101788.01;104954;1303;61308;-84
2022/05/20 03:20:57;;;;;;;5.20;2.90;;;;;;;22.32;44.99;101783.87;104985;1302;61358;-82
2022/05/20 03:23:30;;;;;;;5.50;2.90;;;;;;;22.32;44.88;101784.77;104967;1303;75011;-82
2022/05/20 03:26:03;;;;;;;6.10;3.20;;;;;;;22.32;44.93;101788.70;105205;1303;61310;-82
2022/05/20 03:28:29;;;;;;;5.10;2.80;;;;;;;22.32;45.01;101787.46;104829;1303;61376;-84
2022/05/20 03:31:07;;;;;;;5.30;3.10;;;;;;;22.32;44.91;101787.66;104784;1303;61250;-81
2022/05/20 03:33:38;;;;;;;5.80;3.50;;;;;;;22.32;44.87;101788.01;104744;1303;75210;-89
2022/05/20 03:36:05;;;;;;;6.80;3.20;;;;;;;22.32;44.82;101788.55;104979;1302;61321;-82
2022/05/20 03:38:40;;;;;;;7.40;3.30;;;;;;;22.32;44.85;101790.48;104906;1302;61093;-84
2022/05/20 03:41:10;;;;;;;10.80;3.70;;;;;;;22.31;44.71;101786.27;104826;1303;74006;-84
2022/05/20 03:43:44;;;;;;;14.20;4.90;;;;;;;22.32;44.72;101791.09;104882;1302;75950;-85
2022/05/20 03:46:10;;;;;;;14.80;4.30;;;;;;;22.31;44.53;101790.39;104925;1303;61522;-89
2022/05/20 03:48:39;;;;;;;21.40;4.70;;;;;;;22.30;44.66;101789.17;104907;1303;61400;-85
2022/05/20 03:51:19;;;;;;;18.60;5.00;;;;;;;22.31;44.49;101788.25;104828;1303;72856;-85
2022/05/20 03:53:56;;;;;;;12.50;4.80;;;;;;;22.30;44.26;101785.77;105228;1302;75865;-84
2022/05/20 03:56:40;;;;;;;14.60;4.70;;;;;;;22.29;44.34;101783.33;105017;1302;60517;-86
2022/05/20 03:59:13;;;;;;;12.90;4.80;;;;;;;22.29;44.08;101795.02;104859;1303;61581;-83
2022/05/20 04:02:01;;;;;;;14.90;4.60;;;;;;;22.28;43.91;101801.31;104936;1301;74010;-83
2022/05/20 04:04:33;;;;;;;17.30;4.70;;;;;;;22.27;43.77;101798.16;104877;1300;74065;-83
2022/05/20 04:07:07;;;;;;;13.20;4.60;;;;;;;22.26;43.76;101805.56;104735;1303;61193;-84
2022/05/20 04:09:33;;;;;;;11.30;4.50;;;;;;;22.26;43.46;101803.60;104700;1302;61165;-83
2022/05/20 04:12:04;;;;;;;10.20;3.90;;;;;;;22.25;43.39;101808.29;104800;1302;73641;-82
2022/05/20 04:14:31;;;;;;;11.60;4.30;;;;;;;22.26;43.27;101808.61;104896;1300;74792;-84
2022/05/20 04:16:59;;;;;;;7.80;3.60;;;;;;;22.26;43.06;101814.35;104890;1300;61311;-85
2022/05/20 04:19:28;;;;;;;12.20;3.80;;;;;;;22.26;42.87;101819.56;105165;1300;61374;-84
2022/05/20 04:21:57;;;;;;;9.90;3.60;;;;;;;22.25;42.73;101824.99;104776;1303;72757;-82
2022/05/20 04:24:23;;;;;;;12.60;4.00;;;;;;;22.25;42.65;101823.73;104843;1300;75686;-82
2022/05/20 04:26:48;;;;;;;12.30;3.90;;;;;;;22.25;42.66;101825.16;104455;1302;61371;-81
2022/05/20 04:29:14;;;;;;;9.30;3.90;;;;;;;22.25;42.36;101820.50;104432;1303;61359;-83
2022/05/20 04:31:45;;;;;;;12.30;3.70;;;;;;;22.25;42.39;101827.30;104461;1302;61351;-82
2022/05/20 04:34:13;;;;;;;8.60;3.50;;;;;;;22.25;42.30;101827.85;104683;1302;75033;-82
2022/05/20 04:36:39;;;;;;;8.90;3.40;;;;;;;22.25;42.28;101824.45;104458;1303;61388;-82
2022/05/20 04:39:05;;;;;;;10.10;3.70;;;;;;;22.24;42.09;101821.23;104301;1300;61278;-83
2022/05/20 04:46:59;;;;;;;12.20;3.70;;;;;;;22.24;41.94;101818.56;104276;1300;61538;-82
2022/05/20 04:49:30;;;;;;;15.10;4.00;;;;;;;22.25;41.83;101820.88;104512;1300;61298;-84
2022/05/20 04:51:56;;;;;;;10.00;3.90;;;;;;;22.26;41.67;101822.80;105701;1299;71695;-83
2022/05/20 04:57:53;;;;;;;15.00;3.80;;;;;;;22.28;41.43;101829.09;104129;1300;61279;-84
2022/05/20 05:00:24;;;;;;;12.50;4.40;;;;;;;22.30;41.51;101829.04;105486;1302;60223;-84
2022/05/20 05:02:50;;;;;;;12.80;4.30;;;;;;;22.31;41.33;101827.86;105611;1300;72758;-83
2022/05/20 05:05:17;;;;;;;11.90;3.90;;;;;;;22.32;41.45;101827.80;105355;1300;59726;-83
2022/05/20 05:07:45;;;;;;;12.90;4.00;;;;;;;22.34;41.33;101832.20;105603;1300;60400;-83
2022/05/20 05:10:11;;;;;;;14.20;4.40;;;;;;;22.36;41.31;101836.02;105346;1300;60823;-83
2022/05/20 05:12:37;;;;;;;17.50;4.40;;;;;;;22.38;41.33;101835.17;105617;1300;73025;-84
2022/05/20 05:15:03;;;;;;;13.10;4.30;;;;;;;22.41;41.18;101835.36;105643;1301;60939;-83
2022/05/20 05:20:16;;;;;;;14.00;4.10;;;;;;;22.46;41.10;101836.16;104367;1302;61526;-82
2022/05/20 05:22:41;;;;;;;12.20;4.40;;;;;;;22.48;41.14;101837.12;104238;1300;73865;-84
2022/05/20 05:25:08;;;;;;;12.60;4.40;;;;;;;22.49;41.01;101837.40;104224;1300;62293;-84
2022/05/20 05:27:34;;;;;;;13.80;4.40;;;;;;;22.51;41.11;101837.84;104320;1300;61320;-83
2022/05/20 05:30:00;;;;;;;8.80;3.80;;;;;;;22.52;40.88;101835.24;103994;1302;60102;-81
2022/05/20 05:32:26;;;;;;;10.30;4.80;;;;;;;22.53;40.91;101835.01;104151;1302;61303;-83
2022/05/20 05:34:52;;;;;;;8.60;4.40;;;;;;;22.55;40.86;101834.88;104245;1300;62347;-82
2022/05/20 05:37:17;;;;;;;11.30;4.20;;;;;;;22.56;40.88;101836.21;104054;1299;61329;-81
2022/05/20 05:39:43;;;;;;;10.80;4.60;;;;;;;22.59;40.86;101840.58;104164;1300;61233;-82
2022/05/20 05:42:09;;;;;;;10.50;4.50;;;;;;;22.60;40.83;101839.21;104059;1302;61112;-82
2022/05/20 05:44:34;;;;;;;10.40;4.70;;;;;;;22.62;40.83;101838.75;104098;1300;61321;-83
2022/05/20 05:47:00;;;;;;;12.60;4.20;;;;;;;22.64;40.81;101841.52;104262;1300;63908;-83
2022/05/20 05:49:26;;;;;;;12.90;4.10;;;;;;;22.65;40.75;101837.34;104180;1300;60005;-82
2022/05/20 05:51:53;;;;;;;11.60;4.80;;;;;;;22.65;40.78;101834.97;104100;1300;61420;-83
2022/05/20 05:54:19;;;;;;;18.40;5.90;;;;;;;22.66;40.73;101836.04;103922;1298;61308;-84
2022/05/20 05:56:44;;;;;;;17.10;6.40;;;;;;;22.62;40.43;101835.35;103871;1300;61253;-83
2022/05/20 05:59:21;;;;;;;13.80;5.70;;;;;;;22.55;40.24;101834.86;103806;1302;60595;-84
2022/05/20 06:01:47;;;;;;;13.30;5.20;;;;;;;22.52;40.37;101837.52;103932;1302;61406;-83
2022/05/20 06:04:13;;;;;;;15.10;5.50;;;;;;;22.52;40.36;101836.50;103701;1302;61391;-81
2022/05/20 06:06:38;;;;;;;16.00;4.80;;;;;;;22.53;40.32;101834.63;103893;1302;61216;-82
2022/05/20 06:09:04;;;;;;;12.30;4.60;;;;;;;22.54;40.20;101833.12;103850;1302;61734;-80
2022/05/20 06:11:30;;;;;;;14.20;4.10;;;;;;;22.57;40.36;101835.12;104109;1300;61365;-82
2022/05/20 06:13:56;;;;;;;9.70;4.60;;;;;;;22.59;40.43;101833.52;104080;1303;61281;-80
2022/05/20 06:16:21;;;;;;;14.20;4.70;;;;;;;22.62;40.56;101831.95;104313;1300;61385;-82
2022/05/20 06:18:48;;;;;;;11.40;4.50;;;;;;;22.64;40.51;101830.17;104152;1303;61384;-82
2022/05/20 06:21:14;;;;;;;16.30;4.60;;;;;;;22.66;40.60;101827.58;104264;1302;61413;-82
2022/05/20 06:23:40;;;;;;;13.70;4.60;;;;;;;22.69;40.66;101829.73;104047;1302;59410;-83
2022/05/20 06:26:05;;;;;;;15.30;4.80;;;;;;;22.69;40.67;101825.57;104068;1302;61406;-82
2022/05/20 06:28:31;;;;;;;11.70;4.60;;;;;;;22.70;40.69;101827.82;104122;1303;61294;-81
2022/05/20 06:30:57;;;;;;;15.70;5.30;;;;;;;22.71;40.51;101827.05;104032;1303;61321;-82
2022/05/20 06:33:23;;;;;;;9.80;4.60;;;;;;;22.72;40.59;101829.33;104220;1301;74502;-82
2022/05/20 06:41:18;;;;;;;12.00;4.20;;;;;;;22.74;40.40;101829.21;105450;1302;72544;-83
2022/05/20 06:43:43;;;;;;;9.90;4.50;;;;;;;22.74;40.53;101829.90;105448;1302;60863;-82
2022/05/20 06:46:10;;;;;;;13.90;4.40;;;;;;;22.76;40.44;101830.34;105489;1302;59253;-82
2022/05/20 06:48:45;;;;;;;10.00;4.60;;;;;;;22.77;40.56;101832.25;105057;1302;59440;-82
2022/05/20 06:51:11;;;;;;;15.50;5.60;;;;;;;22.78;40.44;101834.20;104555;1300;72810;-83
2022/05/20 06:53:37;;;;;;;14.50;6.00;;;;;;;22.76;40.35;101830.54;103843;1302;61185;-82
2022/05/20 06:56:03;;;;;;;13.70;5.30;;;;;;;22.72;40.16;101825.04;103902;1302;61450;-81
2022/05/20 06:58:30;;;;;;;21.50;4.90;;;;;;;22.70;40.21;101827.84;104065;1303;61262;-82
2022/05/20 07:00:59;;;;;;;21.40;5.60;;;;;;;22.70;40.25;101828.95;104025;1302;61303;-84
2022/05/20 07:03:25;;;;;;;12.10;5.00;;;;;;;22.66;39.96;101827.03;103825;1303;76359;-82
2022/05/20 07:05:51;;;;;;;12.70;4.70;;;;;;;22.63;40.12;101831.00;103950;1302;61265;-82
2022/05/20 07:08:31;;;;;;;16.80;4.90;;;;;;;22.64;40.19;101833.95;104357;1302;61287;-83
2022/05/20 07:10:57;;;;;;;12.20;4.50;;;;;;;22.67;40.28;101838.13;104041;1300;72917;-82
2022/05/20 07:13:23;;;;;;;13.50;4.70;;;;;;;22.68;40.43;101834.44;104223;1302;61390;-82
2022/05/20 07:15:48;;;;;;;14.10;4.40;;;;;;;22.70;40.27;101838.27;104156;1303;62072;-82
2022/05/20 07:18:14;;;;;;;14.50;4.80;;;;;;;22.71;40.49;101837.09;104280;1300;61272;-82
2022/05/20 07:20:40;;;;;;;11.30;4.40;;;;;;;22.73;40.51;101837.00;104318;1300;61131;-80
2022/05/20 07:23:06;;;;;;;12.30;4.80;;;;;;;22.75;40.46;101840.98;104226;1300;61488;-82
2022/05/20 07:25:37;;;;;;;10.70;4.50;;;;;;;22.76;40.54;101837.71;104338;1299;61824;-82
2022/05/20 07:28:18;;;;;;;11.90;4.20;;;;;;;22.77;40.45;101841.41;104128;1303;61371;-83
2022/05/20 07:30:52;;;;;;;12.80;4.70;;;;;;;22.78;40.53;101838.71;104056;1300;72617;-81
2022/05/20 07:33:18;;;;;;;13.80;4.20;;;;;;;22.79;40.68;101840.27;104044;1300;61416;-82
2022/05/20 07:35:43;;;;;;;13.20;4.40;;;;;;;22.79;40.60;101843.13;104350;1300;63253;-81
2022/05/20 07:38:09;;;;;;;8.10;3.60;;;;;;;22.80;40.71;101841.81;104318;1302;61885;-84
2022/05/20 07:40:35;;;;;;;10.10;4.20;;;;;;;22.81;40.67;101841.03;104308;1303;61445;-81
2022/05/20 07:43:01;;;;;;;9.70;3.90;;;;;;;22.81;40.66;101844.72;104218;1302;72981;-81
2022/05/20 07:45:26;;;;;;;8.60;4.10;;;;;;;22.82;40.58;101845.46;104171;1303;61354;-81
2022/05/20 07:47:52;;;;;;;10.60;3.80;;;;;;;22.82;40.67;101846.16;104223;1302;61431;-82
2022/05/20 07:50:18;;;;;;;10.80;3.60;;;;;;;22.81;40.87;101844.72;104174;1302;61328;-82
2022/05/20 07:55:33;;;;;;;17.80;4.30;;;;;;;22.83;41.43;101836.91;103904;1300;74937;-83
2022/05/20 07:58:00;;;;;;;15.80;3.90;;;;;;;22.82;41.32;101840.59;103999;1303;62002;-83
2022/05/20 08:00:26;;;;;;;14.60;3.60;;;;;;;22.81;41.32;101836.19;105458;1302;59574;-83
2022/05/20 08:02:52;;;;;;;19.20;4.10;;;;;;;22.80;41.17;101838.58;105533;1303;59186;-83
2022/05/20 08:05:20;;;;;;;29.10;4.30;;;;;;;22.80;41.18;101839.80;105491;1302;59153;-83
2022/05/20 08:07:45;;;;;;;30.30;4.30;;;;;;;22.80;41.22;101837.98;105433;1302;61238;-84
2022/05/20 08:10:19;;;;;;;20.30;4.10;;;;;;;22.82;41.19;101839.16;104972;1302;60923;-83
2022/05/20 08:12:45;;;;;;;11.70;3.20;;;;;;;22.82;41.07;101834.09;105321;1305;73867;-81
2022/05/20 08:15:11;;;;;;;12.50;3.70;;;;;;;22.81;40.74;101832.02;104110;1305;60626;-81
2022/05/20 08:17:40;;;;;;;12.80;3.70;;;;;;;22.81;40.51;101831.86;103963;1305;61330;-82
2022/05/20 08:20:09;;;;;;;;;;;;;;;22.83;40.62;101828.52;103856;1308;61546;-82
2022/05/20 08:22:36;;;;;;;12.00;3.70;;;;;;;22.80;40.66;101827.75;103972;1305;73391;-83
2022/05/20 08:25:01;;;;;;;11.10;3.90;;;;;;;22.81;40.65;101823.92;103879;1305;75839;-82
2022/05/20 08:27:29;;;;;;;15.30;4.20;;;;;;;22.83;40.68;101824.89;103875;1305;60483;-82
2022/05/20 08:29:55;;;;;;;23.90;4.00;;;;;;;22.84;40.80;101823.22;104190;1305;61258;-81
2022/05/20 08:32:21;;;;;;;15.60;3.40;;;;;;;22.85;41.10;101820.46;103934;1303;61226;-80
2022/05/20 08:34:47;;;;;;;11.30;3.50;;;;;;;22.86;41.41;101819.99;103994;1305;61438;-82
2022/05/20 08:37:13;;;;;;;16.60;3.80;;;;;;;22.87;41.61;101818.71;103795;1305;61268;-83
2022/05/20 08:39:39;;;;;;;11.00;3.50;;;;;;;22.89;41.79;101812.33;103831;1305;61382;-82
2022/05/20 08:42:05;;;;;;;17.80;4.20;;;;;;;22.90;41.83;101808.48;103934;1305;61413;-83
2022/05/20 08:44:30;;;;;;;14.60;3.20;;;;;;;22.91;42.05;101805.71;104214;1300;61528;-82
2022/05/20 08:47:15;;;;;;;12.20;3.80;;;;;;;22.93;42.06;101804.16;104183;1302;74691;-81
2022/05/20 08:49:40;;;;;;;22.80;3.80;;;;;;;22.96;42.14;101800.77;103979;1302;61292;-81
2022/05/20 08:52:06;;;;;;;26.50;4.90;;;;;;;22.96;42.40;101796.27;103783;1300;61278;-81
2022/05/20 08:54:32;;;;;;;20.00;3.60;;;;;;;22.98;42.40;101789.52;103756;1302;61648;-82
2022/05/20 08:56:58;;;;;;;26.50;3.80;;;;;;;23.00;42.63;101785.79;103807;1302;61348;-82
2022/05/20 08:59:23;;;;;;;21.30;4.00;;;;;;;23.00;42.26;101787.20;103775;1300;61327;-82
2022/05/20 09:01:51;;;;;;;12.90;3.50;;;;;;;23.01;42.02;101786.26;104092;1300;61495;-82
2022/05/20 09:04:22;;;;;;;18.50;3.70;;;;;;;23.00;41.82;101783.78;103998;1302;61307;-81
2022/05/20 09:07:05;;;;;;;14.10;3.40;;;;;;;22.99;41.56;101781.36;105580;1299;74726;-82
2022/05/20 09:09:50;;;;;;;13.30;3.20;;;;;;;22.98;41.12;101781.58;104854;1300;75902;-83
2022/05/20 09:12:32;;;;;;;13.90;3.50;;;;;;;22.98;41.03;101777.09;104248;1300;61032;-82
2022/05/20 09:18:09;;;;;;;8.60;3.30;;;;;;;22.96;40.90;101773.85;104265;1297;72847;-81
2022/05/20 09:20:42;;;;;;;13.30;4.10;;;;;;;22.94;40.73;101770.86;104218;1300;78494;-82
2022/05/20 09:23:07;;;;;;;12.00;3.40;;;;;;;22.95;40.80;101765.10;104008;1300;61185;-82
2022/05/20 09:25:34;;;;;;;12.80;3.00;;;;;;;22.94;40.70;101767.11;104127;1300;61300;-82
2022/05/20 09:28:35;;;;;;;9.20;3.00;;;;;;;22.95;40.71;101765.81;104624;1300;61394;-82
2022/05/20 09:31:19;;;;;;;14.20;3.50;;;;;;;22.95;40.69;101768.12;104290;1300;74908;-82
2022/05/20 09:34:14;;;;;;;14.30;3.20;;;;;;;22.94;40.71;101769.23;104309;1300;61361;-84
2022/05/20 09:36:48;;;;;;;10.40;2.90;;;;;;;22.94;40.74;101766.92;104204;1302;61355;-82
2022/05/20 09:39:19;;;;;;;10.50;2.90;;;;;;;22.93;40.63;101766.43;104483;1300;74238;-83
2022/05/20 09:41:55;;;;;;;10.20;3.00;;;;;;;22.93;40.49;101768.96;104660;1300;75813;-83
2022/05/20 09:44:24;;;;;;;8.50;3.00;;;;;;;22.92;40.48;101770.80;104234;1303;61134;-82
2022/05/20 09:47:00;;;;;;;13.30;3.10;;;;;;;22.92;40.41;101764.16;104225;1303;61511;-84
2022/05/20 09:49:37;;;;;;;16.60;3.40;;;;;;;22.91;40.49;101764.23;104275;1300;72743;-82
2022/05/20 09:52:03;;;;;;;19.70;3.30;;;;;;;22.91;40.68;101757.41;103868;1303;74788;-82
2022/05/20 09:54:34;;;;;;;15.10;3.30;;;;;;;22.92;40.75;101748.76;103991;1303;59724;-82
2022/05/20 09:57:13;;;;;;;10.20;2.80;;;;;;;22.93;40.59;101753.02;104068;1302;61170;-84
2022/05/20 10:00:00;;;;;;;12.20;2.80;;;;;;;22.93;40.44;101753.13;104444;1302;72710;-83
2022/05/20 10:02:29;;;;;;;10.70;2.70;;;;;;;22.93;40.10;101745.64;103857;1302;75461;-84
2022/05/20 10:05:10;;;;;;;4.80;2.40;;;;;;;22.93;39.87;101745.23;105594;1300;60446;-83
2022/05/20 10:07:47;;;;;;;9.40;2.50;;;;;;;22.94;39.64;101738.39;105701;1300;61858;-83
2022/05/20 10:10:55;;;;;;;5.60;2.50;;;;;;;22.94;39.37;101727.06;105599;1300;72981;-81
2022/05/20 10:13:44;;;;;;;8.40;2.30;;;;;;;22.95;39.14;101723.05;105258;1306;74541;-83
2022/05/20 10:16:16;;;;;;;8.10;2.80;;;;;;;22.97;39.04;101723.48;104586;1306;61483;-82
2022/05/20 10:18:55;;;;;;;8.10;2.70;;;;;;;22.97;39.06;101717.92;105281;1306;61106;-82
2022/05/20 10:21:29;;;;;;;7.30;2.90;;;;;;;22.98;39.07;101710.88;105196;1308;74011;-81
2022/05/20 10:24:06;;;;;;;7.40;2.20;;;;;;;23.00;39.08;101699.78;104440;1306;75812;-83
2022/05/20 10:27:04;;;;;;;8.30;2.50;;;;;;;23.00;38.78;101697.42;104328;1308;61923;-82
2022/05/20 10:33:03;;;;;;;6.90;2.30;;;;;;;23.01;38.32;101691.31;105276;1306;73127;-82
2022/05/20 10:36:09;;;;;;;12.60;2.60;;;;;;;22.99;38.47;101692.10;105231;1306;74770;-83
2022/05/20 10:39:10;;;;;;;7.60;2.20;;;;;;;23.00;38.68;101684.35;104657;1308;60360;-83
2022/05/20 10:41:58;;;;;;;9.50;2.20;;;;;;;23.01;38.61;101678.73;104063;1306;61192;-83
2022/05/20 10:51:04;;;;;;;14.20;2.50;;;;;;;22.99;38.50;101663.04;104457;1300;61644;-82
2022/05/20 10:53:50;;;;;;;17.00;2.50;;;;;;;22.99;38.70;101659.42;105272;1300;61880;-82
2022/05/20 10:56:40;;;;;;;10.50;2.60;;;;;;;22.99;38.73;101656.04;105314;1300;73136;-82
2022/05/20 10:59:52;;;;;;;8.10;2.40;;;;;;;23.00;38.61;101652.42;105361;1302;74884;-83
2022/05/20 11:02:46;;;;;;;11.00;2.60;;;;;;;23.01;38.49;101652.70;104914;1308;61836;-83
2022/05/20 11:05:49;;;;;;;7.70;2.40;;;;;;;23.02;38.55;101646.83;104936;1308;60409;-82
2022/05/20 11:08:46;;;;;;;15.90;2.50;;;;;;;23.03;38.43;101640.86;104957;1308;73671;-83
2022/05/20 11:11:39;;;;;;;10.60;2.60;;;;;;;23.05;38.32;101640.95;105032;1308;76067;-82
2022/05/20 11:14:26;;;;;;;6.10;2.20;;;;;;;23.04;38.01;101633.96;105084;1308;59665;-82
2022/05/20 11:17:23;;;;;;;10.00;2.20;;;;;;;23.06;37.71;101629.72;105121;1308;60595;-82
2022/05/20 11:20:29;;;;;;;10.70;2.50;;;;;;;23.07;37.50;101626.59;105159;1309;73078;-82
2022/05/20 11:22:58;;;;;;;9.40;2.40;;;;;;;23.09;37.12;101626.98;104493;1308;930671;-82
2022/05/20 11:25:45;;;;;;;9.20;2.40;;;;;;;23.11;37.14;101623.46;104904;1308;60322;-83
2022/05/20 11:28:46;;;;;;;10.50;2.30;;;;;;;23.13;36.94;101625.38;103849;1308;61146;-82
2022/05/20 11:31:31;;;;;;;11.90;2.60;;;;;;;23.13;37.06;101615.83;103639;1310;71806;-84
2022/05/20 11:34:19;;;;;;;14.10;2.40;;;;;;;23.12;37.38;101616.75;104838;1308;75666;-83
2022/05/20 11:36:52;;;;;;;10.80;2.00;;;;;;;23.13;37.35;101609.69;104011;1308;61553;-82
2022/05/20 11:39:37;;;;;;;8.90;2.10;;;;;;;23.14;37.36;101606.62;104551;1302;61322;-81
2022/05/20 11:42:43;;;;;;;9.60;2.60;;;;;;;23.15;36.96;101600.98;105018;1300;74037;-82
2022/05/20 11:45:21;;;;;;;6.40;2.00;;;;;;;23.15;36.49;101600.05;105370;1300;74690;-83
2022/05/20 11:47:55;;;;;;;8.10;2.20;;;;;;;23.16;36.31;101594.99;104980;1300;61009;-83
2022/05/20 11:50:43;;;;;;;12.50;2.40;;;;;;;23.15;36.25;101593.63;104973;1299;62003;-82
2022/05/20 11:53:38;;;;;;;14.50;2.40;;;;;;;23.12;36.61;101586.42;104696;1302;73134;-84
2022/05/20 11:56:14;;;;;;;7.40;2.10;;;;;;;23.10;36.83;101582.05;105074;1300;75811;-82
2022/05/20 11:58:48;;;;;;;13.30;2.30;;;;;;;23.08;36.89;101581.26;104971;1300;61409;-83
2022/05/20 12:01:14;;;;;;;7.00;2.50;;;;;;;23.08;37.25;101577.33;104435;1303;61262;-83
2022/05/20 12:06:25;;;;;;;10.30;2.30;;;;;;;23.07;37.57;101571.80;104957;1302;74836;-82
2022/05/20 12:08:52;;;;;;;11.40;2.40;;;;;;;23.07;37.86;101568.23;104860;1300;60567;-83
2022/05/20 12:11:23;;;;;;;11.90;2.40;;;;;;;23.07;37.71;101564.48;104841;1300;61234;-82
2022/05/20 12:14:08;;;;;;;13.10;2.40;;;;;;;23.07;37.86;101564.87;104914;1300;72771;-82
2022/05/20 12:16:54;;;;;;;11.50;2.40;;;;;;;23.06;37.98;101558.79;105006;1300;75124;-82
2022/05/20 12:24:52;;;;;;;16.30;2.70;;;;;;;23.06;38.35;101544.83;104929;1303;72366;-82
2022/05/20 12:27:41;;;;;;;9.10;2.30;;;;;;;23.06;38.64;101548.20;104788;1300;61331;-82